sensor_id;sensor_type;location;lat;lon;timestamp;pressure;altitude;pressure_sealevel;temperature;humidity
22440;BME280;11387;51.612;7.210;2024-03-29T00:02:00;98514.09;;;7.82;nan
22440;BME280;11387;51.612;7.210;2024-03-29T00:04:22;98522.84;;;7.91;nan
22440;BME280;11387;51.612;7.210;2024-03-29T00:06:43;98520.75;;;7.86;nan
22440;BME280;11387;51.612;7.210;2024-03-29T00:09:05;98510.38;;;7.98;nan
22440;BME280;11387;51.612;7.210;2024-03-29T00:11:27;98512.44;;;7.81;nan
22440;BME280;11387;51.612;7.210;2024-03-29T00:13:50;98520.28;;;7.97;nan
22440;BME280;11387;51.612;7.210;2024-03-29T00:16:11;98510.66;;;8.03;nan
22440;BME280;11387;51.612;7.210;2024-03-29T00:18:33;98505.72;;;7.85;nan
22440;BME280;11387;51.612;7.210;2024-03-29T00:20:55;98497.03;;;7.83;nan
22440;BME280;11387;51.612;7.210;2024-03-29T00:23:16;98502.09;;;7.93;nan
22440;BME280;11387;51.612;7.210;2024-03-29T00:25:38;98498.31;;;8.02;nan
22440;BME280;11387;51.612;7.210;2024-03-29T00:28:00;98501.78;;;8.17;nan
22440;BME280;11387;51.612;7.210;2024-03-29T00:30:23;98494.13;;;8.14;nan
22440;BME280;11387;51.612;7.210;2024-03-29T00:32:44;98480.03;;;8.05;nan
22440;BME280;11387;51.612;7.210;2024-03-29T00:35:07;98474.09;;;8.10;nan
22440;BME280;11387;51.612;7.210;2024-03-29T00:37:28;98465.88;;;8.11;nan
22440;BME280;11387;51.612;7.210;2024-03-29T00:39:50;98465.00;;;8.04;nan
22440;BME280;11387;51.612;7.210;2024-03-29T00:42:11;98463.31;;;8.03;nan
22440;BME280;11387;51.612;7.210;2024-03-29T00:44:34;98465.22;;;8.24;nan
22440;BME280;11387;51.612;7.210;2024-03-29T00:46:57;98471.22;;;8.11;nan
22440;BME280;11387;51.612;7.210;2024-03-29T00:49:18;98479.09;;;8.13;nan
22440;BME280;11387;51.612;7.210;2024-03-29T00:51:40;98490.53;;;8.07;nan
22440;BME280;11387;51.612;7.210;2024-03-29T00:54:02;98492.34;;;8.21;nan
22440;BME280;11387;51.612;7.210;2024-03-29T00:56:23;98509.13;;;8.30;nan
22440;BME280;11387;51.612;7.210;2024-03-29T00:58:45;98508.22;;;8.23;nan
22440;BME280;11387;51.612;7.210;2024-03-29T01:01:07;98512.56;;;8.24;nan
22440;BME280;11387;51.612;7.210;2024-03-29T01:03:30;98513.09;;;8.19;nan
22440;BME280;11387;51.612;7.210;2024-03-29T01:05:51;98522.50;;;8.30;nan
22440;BME280;11387;51.612;7.210;2024-03-29T01:08:13;98533.28;;;8.36;nan
22440;BME280;11387;51.612;7.210;2024-03-29T01:10:34;98533.13;;;8.38;nan
22440;BME280;11387;51.612;7.210;2024-03-29T01:12:56;98527.47;;;8.33;nan
22440;BME280;11387;51.612;7.210;2024-03-29T01:15:18;98517.00;;;8.17;nan
22440;BME280;11387;51.612;7.210;2024-03-29T01:17:39;98520.16;;;8.05;nan
22440;BME280;11387;51.612;7.210;2024-03-29T01:20:02;98525.03;;;8.17;nan
22440;BME280;11387;51.612;7.210;2024-03-29T01:22:24;98510.84;;;8.01;nan
22440;BME280;11387;51.612;7.210;2024-03-29T01:24:46;98513.31;;;8.03;nan
22440;BME280;11387;51.612;7.210;2024-03-29T01:27:07;98518.78;;;8.09;nan
22440;BME280;11387;51.612;7.210;2024-03-29T01:29:29;98519.50;;;8.03;nan
22440;BME280;11387;51.612;7.210;2024-03-29T01:31:51;98521.28;;;7.96;nan
22440;BME280;11387;51.612;7.210;2024-03-29T01:34:12;98525.88;;;7.87;nan
22440;BME280;11387;51.612;7.210;2024-03-29T01:36:35;98531.53;;;7.93;nan
22440;BME280;11387;51.612;7.210;2024-03-29T01:38:57;98532.41;;;8.00;nan
22440;BME280;11387;51.612;7.210;2024-03-29T01:41:19;98528.91;;;7.99;nan
22440;BME280;11387;51.612;7.210;2024-03-29T01:43:40;98526.44;;;7.98;nan
22440;BME280;11387;51.612;7.210;2024-03-29T01:46:04;98525.72;;;8.04;nan
22440;BME280;11387;51.612;7.210;2024-03-29T01:48:29;98521.22;;;8.26;nan
22440;BME280;11387;51.612;7.210;2024-03-29T01:50:53;98509.31;;;8.28;nan
22440;BME280;11387;51.612;7.210;2024-03-29T01:53:18;98512.44;;;8.32;nan
22440;BME280;11387;51.612;7.210;2024-03-29T01:55:41;98514.66;;;8.28;nan
22440;BME280;11387;51.612;7.210;2024-03-29T01:58:04;98518.09;;;8.37;nan
22440;BME280;11387;51.612;7.210;2024-03-29T02:00:29;98498.66;;;8.35;nan
22440;BME280;11387;51.612;7.210;2024-03-29T02:02:52;98515.50;;;8.44;nan
22440;BME280;11387;51.612;7.210;2024-03-29T02:05:15;98509.47;;;8.42;nan
22440;BME280;11387;51.612;7.210;2024-03-29T02:07:38;98500.19;;;8.37;nan
22440;BME280;11387;51.612;7.210;2024-03-29T02:10:02;98495.53;;;8.31;nan
22440;BME280;11387;51.612;7.210;2024-03-29T02:12:24;98500.06;;;8.46;nan
22440;BME280;11387;51.612;7.210;2024-03-29T02:14:47;98478.88;;;8.51;nan
22440;BME280;11387;51.612;7.210;2024-03-29T02:17:09;98468.91;;;8.59;nan
22440;BME280;11387;51.612;7.210;2024-03-29T02:19:31;98453.19;;;8.56;nan
22440;BME280;11387;51.612;7.210;2024-03-29T02:21:56;98463.66;;;8.51;nan
22440;BME280;11387;51.612;7.210;2024-03-29T02:24:22;98456.50;;;8.58;nan
22440;BME280;11387;51.612;7.210;2024-03-29T02:26:45;98446.38;;;8.54;nan
22440;BME280;11387;51.612;7.210;2024-03-29T02:29:08;98454.66;;;8.59;nan
22440;BME280;11387;51.612;7.210;2024-03-29T02:31:31;98456.91;;;8.55;nan
22440;BME280;11387;51.612;7.210;2024-03-29T02:33:54;98458.56;;;8.56;nan
22440;BME280;11387;51.612;7.210;2024-03-29T02:36:17;98448.59;;;8.72;nan
22440;BME280;11387;51.612;7.210;2024-03-29T02:38:39;98446.69;;;8.66;nan
22440;BME280;11387;51.612;7.210;2024-03-29T02:41:03;98470.16;;;8.64;nan
22440;BME280;11387;51.612;7.210;2024-03-29T02:43:26;98454.19;;;8.77;nan
22440;BME280;11387;51.612;7.210;2024-03-29T02:45:48;98454.06;;;8.85;nan
22440;BME280;11387;51.612;7.210;2024-03-29T02:48:11;98451.72;;;8.75;nan
22440;BME280;11387;51.612;7.210;2024-03-29T02:50:32;98460.72;;;8.68;nan
22440;BME280;11387;51.612;7.210;2024-03-29T02:52:55;98473.47;;;8.66;nan
22440;BME280;11387;51.612;7.210;2024-03-29T02:55:17;98464.22;;;8.68;nan
22440;BME280;11387;51.612;7.210;2024-03-29T02:57:41;98460.28;;;8.64;nan
22440;BME280;11387;51.612;7.210;2024-03-29T03:00:03;98451.41;;;8.64;nan
22440;BME280;11387;51.612;7.210;2024-03-29T03:02:26;98452.03;;;8.66;nan
22440;BME280;11387;51.612;7.210;2024-03-29T03:04:47;98455.75;;;8.65;nan
22440;BME280;11387;51.612;7.210;2024-03-29T03:07:10;98470.16;;;8.64;nan
22440;BME280;11387;51.612;7.210;2024-03-29T03:09:51;98469.97;;;8.65;nan
22440;BME280;11387;51.612;7.210;2024-03-29T03:12:31;98478.75;;;8.80;nan
22440;BME280;11387;51.612;7.210;2024-03-29T03:14:55;98483.63;;;8.98;nan
22440;BME280;11387;51.612;7.210;2024-03-29T03:17:18;98477.94;;;9.08;nan
22440;BME280;11387;51.612;7.210;2024-03-29T03:19:41;98476.91;;;9.09;nan
22440;BME280;11387;51.612;7.210;2024-03-29T03:22:02;98492.38;;;9.07;nan
22440;BME280;11387;51.612;7.210;2024-03-29T03:24:25;98501.81;;;9.03;nan
22440;BME280;11387;51.612;7.210;2024-03-29T03:26:46;98483.16;;;8.88;nan
22440;BME280;11387;51.612;7.210;2024-03-29T03:29:09;98482.84;;;9.04;nan
22440;BME280;11387;51.612;7.210;2024-03-29T03:31:33;98473.75;;;8.99;nan
22440;BME280;11387;51.612;7.210;2024-03-29T03:33:55;98478.38;;;9.11;nan
22440;BME280;11387;51.612;7.210;2024-03-29T03:36:17;98465.22;;;9.17;nan
22440;BME280;11387;51.612;7.210;2024-03-29T03:38:39;98469.59;;;8.96;nan
22440;BME280;11387;51.612;7.210;2024-03-29T03:41:01;98476.69;;;8.82;nan
22440;BME280;11387;51.612;7.210;2024-03-29T03:43:22;98486.09;;;8.72;nan
22440;BME280;11387;51.612;7.210;2024-03-29T03:45:47;98478.69;;;8.95;nan
22440;BME280;11387;51.612;7.210;2024-03-29T03:48:10;98457.84;;;8.97;nan
22440;BME280;11387;51.612;7.210;2024-03-29T03:50:33;98462.44;;;8.75;nan
22440;BME280;11387;51.612;7.210;2024-03-29T03:52:55;98479.50;;;8.74;nan
22440;BME280;11387;51.612;7.210;2024-03-29T03:55:17;98476.25;;;8.79;nan
22440;BME280;11387;51.612;7.210;2024-03-29T03:57:39;98484.00;;;8.67;nan
22440;BME280;11387;51.612;7.210;2024-03-29T04:00:03;98485.13;;;8.58;nan
22440;BME280;11387;51.612;7.210;2024-03-29T04:02:26;98477.78;;;8.24;nan
22440;BME280;11387;51.612;7.210;2024-03-29T04:04:50;98478.66;;;8.31;nan
22440;BME280;11387;51.612;7.210;2024-03-29T04:07:12;98467.81;;;8.18;nan
22440;BME280;11387;51.612;7.210;2024-03-29T04:09:34;98468.78;;;7.95;nan
22440;BME280;11387;51.612;7.210;2024-03-29T04:11:56;98479.88;;;7.92;nan
22440;BME280;11387;51.612;7.210;2024-03-29T04:14:19;98484.88;;;7.66;nan
22440;BME280;11387;51.612;7.210;2024-03-29T04:16:40;98486.44;;;7.75;nan
22440;BME280;11387;51.612;7.210;2024-03-29T04:19:03;98484.63;;;7.46;nan
22440;BME280;11387;51.612;7.210;2024-03-29T04:21:25;98499.25;;;7.35;nan
22440;BME280;11387;51.612;7.210;2024-03-29T04:23:49;98508.56;;;7.24;nan
22440;BME280;11387;51.612;7.210;2024-03-29T04:26:11;98501.16;;;7.11;nan
22440;BME280;11387;51.612;7.210;2024-03-29T04:28:33;98491.03;;;7.07;nan
22440;BME280;11387;51.612;7.210;2024-03-29T04:30:56;98490.41;;;7.05;nan
22440;BME280;11387;51.612;7.210;2024-03-29T04:33:19;98503.91;;;7.03;nan
22440;BME280;11387;51.612;7.210;2024-03-29T04:35:40;98505.66;;;6.96;nan
22440;BME280;11387;51.612;7.210;2024-03-29T04:38:04;98505.72;;;6.88;nan
22440;BME280;11387;51.612;7.210;2024-03-29T04:40:27;98516.47;;;6.80;nan
22440;BME280;11387;51.612;7.210;2024-03-29T04:42:49;98517.97;;;6.82;nan
22440;BME280;11387;51.612;7.210;2024-03-29T04:45:12;98525.56;;;6.71;nan
22440;BME280;11387;51.612;7.210;2024-03-29T04:47:34;98526.44;;;6.63;nan
22440;BME280;11387;51.612;7.210;2024-03-29T04:49:56;98528.47;;;6.61;nan
22440;BME280;11387;51.612;7.210;2024-03-29T04:52:18;98525.44;;;6.64;nan
22440;BME280;11387;51.612;7.210;2024-03-29T04:54:43;98533.16;;;6.59;nan
22440;BME280;11387;51.612;7.210;2024-03-29T04:57:05;98521.72;;;6.50;nan
22440;BME280;11387;51.612;7.210;2024-03-29T04:59:28;98522.25;;;6.46;nan
22440;BME280;11387;51.612;7.210;2024-03-29T05:01:51;98523.41;;;6.43;nan
22440;BME280;11387;51.612;7.210;2024-03-29T05:04:16;98528.63;;;6.36;nan
22440;BME280;11387;51.612;7.210;2024-03-29T05:06:46;98519.44;;;6.39;nan
22440;BME280;11387;51.612;7.210;2024-03-29T05:09:08;98519.31;;;6.32;nan
22440;BME280;11387;51.612;7.210;2024-03-29T05:11:34;98525.66;;;6.31;nan
22440;BME280;11387;51.612;7.210;2024-03-29T05:13:56;98532.78;;;6.39;nan
22440;BME280;11387;51.612;7.210;2024-03-29T05:16:21;98541.34;;;6.34;nan
22440;BME280;11387;51.612;7.210;2024-03-29T05:18:44;98531.81;;;6.32;nan
22440;BME280;11387;51.612;7.210;2024-03-29T05:21:06;98524.84;;;6.31;nan
22440;BME280;11387;51.612;7.210;2024-03-29T05:23:31;98514.31;;;6.29;nan
22440;BME280;11387;51.612;7.210;2024-03-29T05:25:53;98526.72;;;6.22;nan
22440;BME280;11387;51.612;7.210;2024-03-29T05:28:18;98527.50;;;6.31;nan
22440;BME280;11387;51.612;7.210;2024-03-29T05:30:40;98511.50;;;6.31;nan
22440;BME280;11387;51.612;7.210;2024-03-29T05:33:03;98518.50;;;6.32;nan
22440;BME280;11387;51.612;7.210;2024-03-29T05:35:28;98523.28;;;6.36;nan
22440;BME280;11387;51.612;7.210;2024-03-29T05:37:50;98520.97;;;6.33;nan
22440;BME280;11387;51.612;7.210;2024-03-29T05:40:16;98511.78;;;6.36;nan
22440;BME280;11387;51.612;7.210;2024-03-29T05:42:38;98508.78;;;6.39;nan
22440;BME280;11387;51.612;7.210;2024-03-29T05:45:04;98503.66;;;6.29;nan
22440;BME280;11387;51.612;7.210;2024-03-29T05:47:27;98496.50;;;6.30;nan
22440;BME280;11387;51.612;7.210;2024-03-29T05:49:50;98475.59;;;6.33;nan
22440;BME280;11387;51.612;7.210;2024-03-29T05:52:12;98476.00;;;6.30;nan
22440;BME280;11387;51.612;7.210;2024-03-29T05:54:35;98484.63;;;6.32;nan
22440;BME280;11387;51.612;7.210;2024-03-29T05:56:58;98481.13;;;6.32;nan
22440;BME280;11387;51.612;7.210;2024-03-29T05:59:20;98484.16;;;6.29;nan
22440;BME280;11387;51.612;7.210;2024-03-29T06:01:44;98481.66;;;6.27;nan
22440;BME280;11387;51.612;7.210;2024-03-29T06:04:06;98476.00;;;6.30;nan
22440;BME280;11387;51.612;7.210;2024-03-29T06:06:36;98464.94;;;6.33;nan
22440;BME280;11387;51.612;7.210;2024-03-29T06:08:59;98460.81;;;6.31;nan
22440;BME280;11387;51.612;7.210;2024-03-29T06:11:21;98460.94;;;6.37;nan
22440;BME280;11387;51.612;7.210;2024-03-29T06:13:44;98473.06;;;6.40;nan
22440;BME280;11387;51.612;7.210;2024-03-29T06:16:25;98473.53;;;6.44;nan
22440;BME280;11387;51.612;7.210;2024-03-29T06:19:07;98476.41;;;6.42;nan
22440;BME280;11387;51.612;7.210;2024-03-29T06:21:30;98473.75;;;6.42;nan
22440;BME280;11387;51.612;7.210;2024-03-29T06:23:59;98478.25;;;6.42;nan
22440;BME280;11387;51.612;7.210;2024-03-29T06:26:22;98466.09;;;6.39;nan
22440;BME280;11387;51.612;7.210;2024-03-29T06:28:45;98475.25;;;6.36;nan
22440;BME280;11387;51.612;7.210;2024-03-29T06:31:08;98462.59;;;6.38;nan
22440;BME280;11387;51.612;7.210;2024-03-29T06:33:31;98458.56;;;6.43;nan
22440;BME280;11387;51.612;7.210;2024-03-29T06:35:55;98458.91;;;6.39;nan
22440;BME280;11387;51.612;7.210;2024-03-29T06:38:17;98462.09;;;6.35;nan
22440;BME280;11387;51.612;7.210;2024-03-29T06:40:40;98464.94;;;6.33;nan
22440;BME280;11387;51.612;7.210;2024-03-29T06:43:03;98459.31;;;6.28;nan
22440;BME280;11387;51.612;7.210;2024-03-29T06:45:26;98467.25;;;6.36;nan
22440;BME280;11387;51.612;7.210;2024-03-29T06:47:48;98465.41;;;6.37;nan
22440;BME280;11387;51.612;7.210;2024-03-29T06:50:11;98457.88;;;6.40;nan
22440;BME280;11387;51.612;7.210;2024-03-29T06:52:35;98449.41;;;6.37;nan
22440;BME280;11387;51.612;7.210;2024-03-29T06:54:57;98450.91;;;6.39;nan
22440;BME280;11387;51.612;7.210;2024-03-29T06:57:20;98454.16;;;6.50;nan
22440;BME280;11387;51.612;7.210;2024-03-29T06:59:46;98447.06;;;6.57;nan
22440;BME280;11387;51.612;7.210;2024-03-29T07:02:09;98442.28;;;6.52;nan
22440;BME280;11387;51.612;7.210;2024-03-29T07:04:32;98455.09;;;6.57;nan
22440;BME280;11387;51.612;7.210;2024-03-29T07:06:54;98448.81;;;6.50;nan
22440;BME280;11387;51.612;7.210;2024-03-29T07:09:18;98448.50;;;6.45;nan
22440;BME280;11387;51.612;7.210;2024-03-29T07:11:40;98448.34;;;6.46;nan
22440;BME280;11387;51.612;7.210;2024-03-29T07:14:03;98439.97;;;6.49;nan
22440;BME280;11387;51.612;7.210;2024-03-29T07:16:26;98455.34;;;6.47;nan
22440;BME280;11387;51.612;7.210;2024-03-29T07:18:49;98457.66;;;6.50;nan
22440;BME280;11387;51.612;7.210;2024-03-29T07:21:16;98450.59;;;6.57;nan
22440;BME280;11387;51.612;7.210;2024-03-29T07:23:39;98449.31;;;6.68;nan
22440;BME280;11387;51.612;7.210;2024-03-29T07:26:04;98451.91;;;6.76;nan
22440;BME280;11387;51.612;7.210;2024-03-29T07:28:27;98456.28;;;6.92;nan
22440;BME280;11387;51.612;7.210;2024-03-29T07:30:50;98452.88;;;6.98;nan
22440;BME280;11387;51.612;7.210;2024-03-29T07:33:14;98462.47;;;7.07;nan
22440;BME280;11387;51.612;7.210;2024-03-29T07:35:37;98449.38;;;7.12;nan
22440;BME280;11387;51.612;7.210;2024-03-29T07:38:02;98435.31;;;7.19;nan
22440;BME280;11387;51.612;7.210;2024-03-29T07:40:32;98435.03;;;7.28;nan
22440;BME280;11387;51.612;7.210;2024-03-29T07:42:57;98445.53;;;7.45;nan
22440;BME280;11387;51.612;7.210;2024-03-29T07:45:21;98448.28;;;7.51;nan
22440;BME280;11387;51.612;7.210;2024-03-29T07:47:43;98462.00;;;7.63;nan
22440;BME280;11387;51.612;7.210;2024-03-29T07:50:08;98467.47;;;7.70;nan
22440;BME280;11387;51.612;7.210;2024-03-29T07:52:31;98475.75;;;7.75;nan
22440;BME280;11387;51.612;7.210;2024-03-29T07:54:54;98485.06;;;7.79;nan
22440;BME280;11387;51.612;7.210;2024-03-29T07:57:16;98490.03;;;7.82;nan
22440;BME280;11387;51.612;7.210;2024-03-29T07:59:40;98497.59;;;7.93;nan
22440;BME280;11387;51.612;7.210;2024-03-29T08:02:03;98506.06;;;7.97;nan
22440;BME280;11387;51.612;7.210;2024-03-29T08:04:26;98520.41;;;8.10;nan
22440;BME280;11387;51.612;7.210;2024-03-29T08:06:51;98514.97;;;8.19;nan
22440;BME280;11387;51.612;7.210;2024-03-29T08:09:14;98511.47;;;8.18;nan
22440;BME280;11387;51.612;7.210;2024-03-29T08:11:36;98507.22;;;8.24;nan
22440;BME280;11387;51.612;7.210;2024-03-29T08:14:04;98504.00;;;8.13;nan
22440;BME280;11387;51.612;7.210;2024-03-29T08:16:31;98505.31;;;8.03;nan
22440;BME280;11387;51.612;7.210;2024-03-29T08:18:54;98505.13;;;8.04;nan
22440;BME280;11387;51.612;7.210;2024-03-29T08:21:17;98506.59;;;8.07;nan
22440;BME280;11387;51.612;7.210;2024-03-29T08:23:40;98501.66;;;8.25;nan
22440;BME280;11387;51.612;7.210;2024-03-29T08:26:02;98509.94;;;8.45;nan
22440;BME280;11387;51.612;7.210;2024-03-29T08:28:25;98502.53;;;8.47;nan
22440;BME280;11387;51.612;7.210;2024-03-29T08:30:57;98507.84;;;8.41;nan
22440;BME280;11387;51.612;7.210;2024-03-29T08:33:21;98508.53;;;8.34;nan
22440;BME280;11387;51.612;7.210;2024-03-29T08:35:44;98497.78;;;8.28;nan
22440;BME280;11387;51.612;7.210;2024-03-29T08:38:07;98507.63;;;8.27;nan
22440;BME280;11387;51.612;7.210;2024-03-29T08:40:29;98501.47;;;8.27;nan
22440;BME280;11387;51.612;7.210;2024-03-29T08:42:55;98504.59;;;8.30;nan
22440;BME280;11387;51.612;7.210;2024-03-29T08:45:18;98508.09;;;8.31;nan
22440;BME280;11387;51.612;7.210;2024-03-29T08:47:40;98515.03;;;8.25;nan
22440;BME280;11387;51.612;7.210;2024-03-29T08:50:05;98516.69;;;8.26;nan
22440;BME280;11387;51.612;7.210;2024-03-29T08:52:27;98517.16;;;8.30;nan
22440;BME280;11387;51.612;7.210;2024-03-29T08:54:50;98514.84;;;8.27;nan
22440;BME280;11387;51.612;7.210;2024-03-29T08:57:13;98510.22;;;8.35;nan
22440;BME280;11387;51.612;7.210;2024-03-29T08:59:35;98517.06;;;8.38;nan
22440;BME280;11387;51.612;7.210;2024-03-29T09:02:04;98526.28;;;8.35;nan
22440;BME280;11387;51.612;7.210;2024-03-29T09:04:27;98534.16;;;8.37;nan
22440;BME280;11387;51.612;7.210;2024-03-29T09:06:50;98528.03;;;8.43;nan
22440;BME280;11387;51.612;7.210;2024-03-29T09:09:15;98534.03;;;8.45;nan
22440;BME280;11387;51.612;7.210;2024-03-29T09:11:38;98541.50;;;8.50;nan
22440;BME280;11387;51.612;7.210;2024-03-29T09:14:00;98555.53;;;8.52;nan
22440;BME280;11387;51.612;7.210;2024-03-29T09:16:23;98549.53;;;8.50;nan
22440;BME280;11387;51.612;7.210;2024-03-29T09:18:46;98533.81;;;8.47;nan
22440;BME280;11387;51.612;7.210;2024-03-29T09:21:08;98534.38;;;8.57;nan
22440;BME280;11387;51.612;7.210;2024-03-29T09:23:33;98532.31;;;8.59;nan
22440;BME280;11387;51.612;7.210;2024-03-29T09:25:56;98539.38;;;8.67;nan
22440;BME280;11387;51.612;7.210;2024-03-29T09:28:19;98544.00;;;8.73;nan
22440;BME280;11387;51.612;7.210;2024-03-29T09:30:42;98530.59;;;8.73;nan
22440;BME280;11387;51.612;7.210;2024-03-29T09:33:06;98539.91;;;8.77;nan
22440;BME280;11387;51.612;7.210;2024-03-29T09:35:31;98542.25;;;8.86;nan
22440;BME280;11387;51.612;7.210;2024-03-29T09:37:53;98537.53;;;9.10;nan
22440;BME280;11387;51.612;7.210;2024-03-29T09:40:19;98536.31;;;9.41;nan
22440;BME280;11387;51.612;7.210;2024-03-29T09:42:43;98543.88;;;9.58;nan
22440;BME280;11387;51.612;7.210;2024-03-29T09:45:07;98541.72;;;9.75;nan
22440;BME280;11387;51.612;7.210;2024-03-29T09:47:31;98541.34;;;9.85;nan
22440;BME280;11387;51.612;7.210;2024-03-29T09:49:54;98548.44;;;9.99;nan
22440;BME280;11387;51.612;7.210;2024-03-29T09:52:19;98545.66;;;9.79;nan
22440;BME280;11387;51.612;7.210;2024-03-29T09:54:42;98550.59;;;9.76;nan
22440;BME280;11387;51.612;7.210;2024-03-29T09:57:07;98546.09;;;9.83;nan
22440;BME280;11387;51.612;7.210;2024-03-29T09:59:31;98543.19;;;9.84;nan
22440;BME280;11387;51.612;7.210;2024-03-29T10:01:56;98546.88;;;9.77;nan
22440;BME280;11387;51.612;7.210;2024-03-29T10:04:21;98549.00;;;9.53;nan
22440;BME280;11387;51.612;7.210;2024-03-29T10:06:46;98539.06;;;9.47;nan
22440;BME280;11387;51.612;7.210;2024-03-29T10:09:11;98536.13;;;9.70;nan
22440;BME280;11387;51.612;7.210;2024-03-29T10:11:34;98541.28;;;9.72;nan
22440;BME280;11387;51.612;7.210;2024-03-29T10:13:59;98543.69;;;10.01;nan
22440;BME280;11387;51.612;7.210;2024-03-29T10:16:22;98547.34;;;10.28;nan
22440;BME280;11387;51.612;7.210;2024-03-29T10:18:47;98546.63;;;10.54;nan
22440;BME280;11387;51.612;7.210;2024-03-29T10:21:10;98556.00;;;10.98;nan
22440;BME280;11387;51.612;7.210;2024-03-29T10:23:34;98564.28;;;11.30;nan
22440;BME280;11387;51.612;7.210;2024-03-29T10:25:57;98576.72;;;11.44;nan
22440;BME280;11387;51.612;7.210;2024-03-29T10:28:20;98574.44;;;11.41;nan
22440;BME280;11387;51.612;7.210;2024-03-29T10:30:44;98584.56;;;11.46;nan
22440;BME280;11387;51.612;7.210;2024-03-29T10:33:06;98578.78;;;11.09;nan
22440;BME280;11387;51.612;7.210;2024-03-29T10:35:29;98581.44;;;10.96;nan
22440;BME280;11387;51.612;7.210;2024-03-29T10:37:52;98594.03;;;10.89;nan
22440;BME280;11387;51.612;7.210;2024-03-29T10:40:14;98595.28;;;10.86;nan
22440;BME280;11387;51.612;7.210;2024-03-29T10:42:38;98588.47;;;10.90;nan
22440;BME280;11387;51.612;7.210;2024-03-29T10:45:02;98590.75;;;10.93;nan
22440;BME280;11387;51.612;7.210;2024-03-29T10:47:26;98578.34;;;11.12;nan
22440;BME280;11387;51.612;7.210;2024-03-29T10:49:50;98582.94;;;11.25;nan
22440;BME280;11387;51.612;7.210;2024-03-29T10:52:13;98575.66;;;11.52;nan
22440;BME280;11387;51.612;7.210;2024-03-29T10:54:39;98569.06;;;11.35;nan
22440;BME280;11387;51.612;7.210;2024-03-29T10:57:05;98573.59;;;11.34;nan
22440;BME280;11387;51.612;7.210;2024-03-29T10:59:41;98572.97;;;11.32;nan
22440;BME280;11387;51.612;7.210;2024-03-29T11:02:12;98563.88;;;11.33;nan
22440;BME280;11387;51.612;7.210;2024-03-29T11:04:37;98562.63;;;11.55;nan
22440;BME280;11387;51.612;7.210;2024-03-29T11:07:06;98573.78;;;11.86;nan
22440;BME280;11387;51.612;7.210;2024-03-29T11:09:31;98569.22;;;11.93;nan
22440;BME280;11387;51.612;7.210;2024-03-29T11:11:56;98564.59;;;12.20;nan
22440;BME280;11387;51.612;7.210;2024-03-29T11:14:27;98557.75;;;12.11;nan
22440;BME280;11387;51.612;7.210;2024-03-29T11:16:52;98561.72;;;12.08;nan
22440;BME280;11387;51.612;7.210;2024-03-29T11:19:18;98550.38;;;12.83;nan
22440;BME280;11387;51.612;7.210;2024-03-29T11:21:43;98536.69;;;14.02;nan
22440;BME280;11387;51.612;7.210;2024-03-29T11:24:10;98537.69;;;15.64;nan
22440;BME280;11387;51.612;7.210;2024-03-29T11:26:33;98546.63;;;17.93;nan
22440;BME280;11387;51.612;7.210;2024-03-29T11:28:55;98554.38;;;18.45;nan
22440;BME280;11387;51.612;7.210;2024-03-29T11:31:22;98565.97;;;19.06;nan
22440;BME280;11387;51.612;7.210;2024-03-29T11:33:45;98576.81;;;18.74;nan
22440;BME280;11387;51.612;7.210;2024-03-29T11:36:11;98582.47;;;18.29;nan
22440;BME280;11387;51.612;7.210;2024-03-29T11:38:35;98578.91;;;18.06;nan
22440;BME280;11387;51.612;7.210;2024-03-29T11:41:05;98589.69;;;18.40;nan
22440;BME280;11387;51.612;7.210;2024-03-29T11:43:28;98577.25;;;17.21;nan
22440;BME280;11387;51.612;7.210;2024-03-29T11:45:52;98571.28;;;17.19;nan
22440;BME280;11387;51.612;7.210;2024-03-29T11:48:18;98560.16;;;18.27;nan
22440;BME280;11387;51.612;7.210;2024-03-29T11:50:43;98567.06;;;19.05;nan
22440;BME280;11387;51.612;7.210;2024-03-29T11:53:05;98562.16;;;19.07;nan
22440;BME280;11387;51.612;7.210;2024-03-29T11:55:29;98562.00;;;20.31;nan
22440;BME280;11387;51.612;7.210;2024-03-29T11:57:52;98543.81;;;19.94;nan
22440;BME280;11387;51.612;7.210;2024-03-29T12:00:15;98559.72;;;19.38;nan
22440;BME280;11387;51.612;7.210;2024-03-29T12:02:39;98561.34;;;18.58;nan
22440;BME280;11387;51.612;7.210;2024-03-29T12:05:06;98568.56;;;20.35;nan
22440;BME280;11387;51.612;7.210;2024-03-29T12:07:29;98596.63;;;19.51;nan
22440;BME280;11387;51.612;7.210;2024-03-29T12:09:52;98611.72;;;17.66;nan
22440;BME280;11387;51.612;7.210;2024-03-29T12:12:16;98611.28;;;16.31;nan
22440;BME280;11387;51.612;7.210;2024-03-29T12:14:39;98620.66;;;16.00;nan
22440;BME280;11387;51.612;7.210;2024-03-29T12:17:02;98625.00;;;15.89;nan
22440;BME280;11387;51.612;7.210;2024-03-29T12:19:30;98629.06;;;15.45;nan
22440;BME280;11387;51.612;7.210;2024-03-29T12:21:57;98609.41;;;15.08;nan
22440;BME280;11387;51.612;7.210;2024-03-29T12:24:20;98619.16;;;14.79;nan
22440;BME280;11387;51.612;7.210;2024-03-29T12:26:43;98632.69;;;14.42;nan
22440;BME280;11387;51.612;7.210;2024-03-29T12:29:07;98636.06;;;13.75;nan
22440;BME280;11387;51.612;7.210;2024-03-29T12:31:30;98635.44;;;13.17;nan
22440;BME280;11387;51.612;7.210;2024-03-29T12:33:52;98643.97;;;12.69;nan
22440;BME280;11387;51.612;7.210;2024-03-29T12:36:15;98639.72;;;12.48;nan
22440;BME280;11387;51.612;7.210;2024-03-29T12:38:41;98636.63;;;12.31;nan
22440;BME280;11387;51.612;7.210;2024-03-29T12:41:05;98654.72;;;12.11;nan
22440;BME280;11387;51.612;7.210;2024-03-29T12:43:28;98639.22;;;11.93;nan
22440;BME280;11387;51.612;7.210;2024-03-29T12:45:52;98636.50;;;12.06;nan
22440;BME280;11387;51.612;7.210;2024-03-29T12:48:16;98642.56;;;12.60;nan
22440;BME280;11387;51.612;7.210;2024-03-29T12:50:41;98638.75;;;13.19;nan
22440;BME280;11387;51.612;7.210;2024-03-29T12:53:06;98647.19;;;13.29;nan
22440;BME280;11387;51.612;7.210;2024-03-29T12:55:29;98637.00;;;13.63;nan
22440;BME280;11387;51.612;7.210;2024-03-29T12:57:53;98630.09;;;13.92;nan
22440;BME280;11387;51.612;7.210;2024-03-29T13:00:16;98630.72;;;14.12;nan
22440;BME280;11387;51.612;7.210;2024-03-29T13:02:39;98633.38;;;14.37;nan
22440;BME280;11387;51.612;7.210;2024-03-29T13:05:03;98648.69;;;14.80;nan
22440;BME280;11387;51.612;7.210;2024-03-29T13:07:26;98633.34;;;16.35;nan
22440;BME280;11387;51.612;7.210;2024-03-29T13:09:49;98632.28;;;18.95;nan